Terminal Aerodrome Forecast
Issued by NWS

Home | Current Version | Previous Version | Text Only | Print | Product List | Glossary On
Versions: 1 2 3 4 5 6 7 8 9 10 11 12
000
FTUS45 KABQ 230533
TAFGUP
TAF
KGUP 230533Z 2306/2406 21010KT P6SM SCT120 BKN200
     FM231700 23018G28KT P6SM -SHRA SCT030 BKN040
     FM232000 25023G33KT P6SM VCSH SCT040 BKN060
     FM240200 24015G22KT P6SM VCSH SCT025 BKN040=

USA.gov is the U.S. government's official web portal to all federal, state and local government web resources and services.